North Dighton, Massachusetts
Current Conditions -  °F | °C
As of 11:16 PM on Wednesday 26 Nov 2014 (Local Time) from KTAN Reporting Station
Light Rain Light Rain  
Wind Chill: 26°   Ceiling: 1000
Heat Index: 35°   Visibility: 4mi
Dew Point: 32°   Wind: 15mph
Humidity: 89%   Direction: 350°N
Pressure: 29.63"   Gusts: 24mph
Location:  41.86°N, 71.12°W
Report Text: KTAN 270416Z AUTO 35013G21KT 4SM -RA BR OVC010 02/00 A2963 RMK AO2 SNB03E16 P0001 T00170000
Loading
Personal Weather Stations






























Interactive Weather Map New forecast layout! Learn more

10-Day Weather Forecast

Advertisements
Track Severe Weather on mobile